sensor_id;sensor_type;location;lat;lon;timestamp;temperature;humidity
65836;SHT30;52595;51.608;7.216;2022-08-19T00:00:14;18.09;88.32
65836;SHT30;52595;51.608;7.216;2022-08-19T00:02:40;18.07;88.35
65836;SHT30;52595;51.608;7.216;2022-08-19T00:05:07;18.09;88.43
65836;SHT30;52595;51.608;7.216;2022-08-19T00:07:33;18.04;88.61
65836;SHT30;52595;51.608;7.216;2022-08-19T00:09:58;18.02;88.37
65836;SHT30;52595;51.608;7.216;2022-08-19T00:12:24;17.96;88.45
65836;SHT30;52595;51.608;7.216;2022-08-19T00:14:49;17.93;88.63
65836;SHT30;52595;51.608;7.216;2022-08-19T00:17:15;17.89;88.56
65836;SHT30;52595;51.608;7.216;2022-08-19T00:19:40;17.83;88.96
65836;SHT30;52595;51.608;7.216;2022-08-19T00:22:06;17.83;89.12
65836;SHT30;52595;51.608;7.216;2022-08-19T00:24:33;17.89;89.10
65836;SHT30;52595;51.608;7.216;2022-08-19T00:26:59;17.92;88.85
65836;SHT30;52595;51.608;7.216;2022-08-19T00:29:27;17.86;89.36
65836;SHT30;52595;51.608;7.216;2022-08-19T00:31:52;17.83;89.40
65836;SHT30;52595;51.608;7.216;2022-08-19T00:34:21;17.76;89.34
65836;SHT30;52595;51.608;7.216;2022-08-19T00:36:47;17.79;89.52
65836;SHT30;52595;51.608;7.216;2022-08-19T00:39:13;17.73;89.62
65836;SHT30;52595;51.608;7.216;2022-08-19T00:41:40;17.69;89.77
65836;SHT30;52595;51.608;7.216;2022-08-19T00:44:12;17.69;89.93
65836;SHT30;52595;51.608;7.216;2022-08-19T00:46:41;17.66;89.78
65836;SHT30;52595;51.608;7.216;2022-08-19T00:49:12;17.62;89.98
65836;SHT30;52595;51.608;7.216;2022-08-19T00:51:41;17.58;90.01
65836;SHT30;52595;51.608;7.216;2022-08-19T00:54:08;17.56;89.91
65836;SHT30;52595;51.608;7.216;2022-08-19T00:56:34;17.59;90.39
65836;SHT30;52595;51.608;7.216;2022-08-19T00:59:01;17.56;89.78
65836;SHT30;52595;51.608;7.216;2022-08-19T01:01:27;17.56;89.77
65836;SHT30;52595;51.608;7.216;2022-08-19T01:03:52;17.50;89.93
65836;SHT30;52595;51.608;7.216;2022-08-19T01:06:18;17.50;90.01
65836;SHT30;52595;51.608;7.216;2022-08-19T01:08:43;17.52;90.23
65836;SHT30;52595;51.608;7.216;2022-08-19T01:11:09;17.46;90.33
65836;SHT30;52595;51.608;7.216;2022-08-19T01:13:35;17.43;90.75
65836;SHT30;52595;51.608;7.216;2022-08-19T01:16:07;17.38;90.84
65836;SHT30;52595;51.608;7.216;2022-08-19T01:18:36;17.35;90.80
65836;SHT30;52595;51.608;7.216;2022-08-19T01:21:12;17.31;90.99
65836;SHT30;52595;51.608;7.216;2022-08-19T01:23:42;17.32;91.04
65836;SHT30;52595;51.608;7.216;2022-08-19T01:26:18;17.34;91.12
65836;SHT30;52595;51.608;7.216;2022-08-19T01:28:46;17.31;91.12
65836;SHT30;52595;51.608;7.216;2022-08-19T01:31:19;17.27;90.84
65836;SHT30;52595;51.608;7.216;2022-08-19T01:33:47;17.31;91.03
65836;SHT30;52595;51.608;7.216;2022-08-19T01:36:23;17.27;91.17
65836;SHT30;52595;51.608;7.216;2022-08-19T01:38:48;17.24;91.02
65836;SHT30;52595;51.608;7.216;2022-08-19T01:41:14;17.19;91.44
65836;SHT30;52595;51.608;7.216;2022-08-19T01:43:40;17.14;91.60
65836;SHT30;52595;51.608;7.216;2022-08-19T01:46:05;17.07;91.67
65836;SHT30;52595;51.608;7.216;2022-08-19T01:48:36;17.08;92.21
65836;SHT30;52595;51.608;7.216;2022-08-19T01:51:03;17.08;92.23
65836;SHT30;52595;51.608;7.216;2022-08-19T01:53:28;17.07;91.98
65836;SHT30;52595;51.608;7.216;2022-08-19T01:55:54;17.07;92.29
65836;SHT30;52595;51.608;7.216;2022-08-19T01:58:23;17.05;92.54
65836;SHT30;52595;51.608;7.216;2022-08-19T02:00:50;17.04;92.17
65836;SHT30;52595;51.608;7.216;2022-08-19T02:03:16;17.00;92.18
65836;SHT30;52595;51.608;7.216;2022-08-19T02:05:42;17.00;92.18
65836;SHT30;52595;51.608;7.216;2022-08-19T02:08:09;17.01;92.21
65836;SHT30;52595;51.608;7.216;2022-08-19T02:10:39;17.01;92.25
65836;SHT30;52595;51.608;7.216;2022-08-19T02:13:04;17.01;92.49
65836;SHT30;52595;51.608;7.216;2022-08-19T02:15:30;17.04;93.07
65836;SHT30;52595;51.608;7.216;2022-08-19T02:17:55;17.04;93.03
65836;SHT30;52595;51.608;7.216;2022-08-19T02:20:21;17.05;93.11
65836;SHT30;52595;51.608;7.216;2022-08-19T02:22:47;17.03;93.10
65836;SHT30;52595;51.608;7.216;2022-08-19T02:25:13;17.04;93.42
65836;SHT30;52595;51.608;7.216;2022-08-19T02:27:40;17.10;93.50
65836;SHT30;52595;51.608;7.216;2022-08-19T02:30:08;17.10;93.35
65836;SHT30;52595;51.608;7.216;2022-08-19T02:32:34;17.12;93.28
65836;SHT30;52595;51.608;7.216;2022-08-19T02:34:59;17.14;93.16
65836;SHT30;52595;51.608;7.216;2022-08-19T02:37:25;17.11;93.12
65836;SHT30;52595;51.608;7.216;2022-08-19T02:40:09;17.05;93.21
65836;SHT30;52595;51.608;7.216;2022-08-19T02:42:35;17.04;93.45
65836;SHT30;52595;51.608;7.216;2022-08-19T02:45:00;17.04;93.57
65836;SHT30;52595;51.608;7.216;2022-08-19T02:47:25;17.03;93.71
65836;SHT30;52595;51.608;7.216;2022-08-19T02:49:51;17.03;93.65
65836;SHT30;52595;51.608;7.216;2022-08-19T02:52:16;17.07;93.62
65836;SHT30;52595;51.608;7.216;2022-08-19T02:54:42;17.03;93.59
65836;SHT30;52595;51.608;7.216;2022-08-19T02:57:07;17.00;93.73
65836;SHT30;52595;51.608;7.216;2022-08-19T02:59:33;17.00;93.75
65836;SHT30;52595;51.608;7.216;2022-08-19T03:01:59;17.01;93.80
65836;SHT30;52595;51.608;7.216;2022-08-19T03:04:24;17.00;93.81
65836;SHT30;52595;51.608;7.216;2022-08-19T03:06:50;16.95;93.99
65836;SHT30;52595;51.608;7.216;2022-08-19T03:09:17;17.00;94.14
65836;SHT30;52595;51.608;7.216;2022-08-19T03:11:43;17.00;94.09
65836;SHT30;52595;51.608;7.216;2022-08-19T03:14:10;16.97;94.12
65836;SHT30;52595;51.608;7.216;2022-08-19T03:16:43;16.95;94.19
65836;SHT30;52595;51.608;7.216;2022-08-19T03:19:08;16.97;94.11
65836;SHT30;52595;51.608;7.216;2022-08-19T03:21:34;16.94;93.73
65836;SHT30;52595;51.608;7.216;2022-08-19T03:24:02;16.88;93.85
65836;SHT30;52595;51.608;7.216;2022-08-19T03:26:28;16.85;94.08
65836;SHT30;52595;51.608;7.216;2022-08-19T03:28:54;16.85;94.22
65836;SHT30;52595;51.608;7.216;2022-08-19T03:31:21;16.85;94.39
65836;SHT30;52595;51.608;7.216;2022-08-19T03:33:48;16.91;94.32
65836;SHT30;52595;51.608;7.216;2022-08-19T03:36:22;16.84;93.83
65836;SHT30;52595;51.608;7.216;2022-08-19T03:38:53;16.77;94.08
65836;SHT30;52595;51.608;7.216;2022-08-19T03:41:26;16.78;94.20
65836;SHT30;52595;51.608;7.216;2022-08-19T03:43:52;16.75;94.14
65836;SHT30;52595;51.608;7.216;2022-08-19T03:46:21;16.78;94.35
65836;SHT30;52595;51.608;7.216;2022-08-19T03:48:50;16.71;94.35
65836;SHT30;52595;51.608;7.216;2022-08-19T03:53:50;16.67;94.40
65836;SHT30;52595;51.608;7.216;2022-08-19T03:56:16;16.60;94.40
65836;SHT30;52595;51.608;7.216;2022-08-19T03:58:42;16.61;94.66
65836;SHT30;52595;51.608;7.216;2022-08-19T04:01:14;16.60;94.62
65836;SHT30;52595;51.608;7.216;2022-08-19T04:03:40;16.54;94.80
65836;SHT30;52595;51.608;7.216;2022-08-19T04:06:11;16.53;94.86
65836;SHT30;52595;51.608;7.216;2022-08-19T04:08:39;16.49;95.29
65836;SHT30;52595;51.608;7.216;2022-08-19T04:11:25;16.47;95.20
65836;SHT30;52595;51.608;7.216;2022-08-19T04:13:52;16.49;95.18
65836;SHT30;52595;51.608;7.216;2022-08-19T04:16:19;16.53;95.02
65836;SHT30;52595;51.608;7.216;2022-08-19T04:18:46;16.50;94.80
65836;SHT30;52595;51.608;7.216;2022-08-19T04:21:17;16.52;94.84
65836;SHT30;52595;51.608;7.216;2022-08-19T04:23:42;16.59;94.77
65836;SHT30;52595;51.608;7.216;2022-08-19T04:26:34;16.65;94.70
65836;SHT30;52595;51.608;7.216;2022-08-19T04:28:59;16.74;94.12
65836;SHT30;52595;51.608;7.216;2022-08-19T04:31:28;16.87;93.81
65836;SHT30;52595;51.608;7.216;2022-08-19T04:33:55;16.91;93.70
65836;SHT30;52595;51.608;7.216;2022-08-19T04:36:24;17.03;93.45
65836;SHT30;52595;51.608;7.216;2022-08-19T04:38:54;17.10;93.26
65836;SHT30;52595;51.608;7.216;2022-08-19T04:41:20;17.19;93.01
65836;SHT30;52595;51.608;7.216;2022-08-19T04:44:04;17.29;92.88
65836;SHT30;52595;51.608;7.216;2022-08-19T04:46:30;17.35;92.42
65836;SHT30;52595;51.608;7.216;2022-08-19T04:49:00;17.40;91.81
65836;SHT30;52595;51.608;7.216;2022-08-19T04:51:26;17.49;91.27
65836;SHT30;52595;51.608;7.216;2022-08-19T04:53:52;17.50;91.15
65836;SHT30;52595;51.608;7.216;2022-08-19T04:56:19;17.45;91.34
65836;SHT30;52595;51.608;7.216;2022-08-19T04:58:46;17.42;91.55
65836;SHT30;52595;51.608;7.216;2022-08-19T05:01:20;17.38;91.64
65836;SHT30;52595;51.608;7.216;2022-08-19T05:03:45;17.38;91.81
65836;SHT30;52595;51.608;7.216;2022-08-19T05:06:13;17.40;91.88
65836;SHT30;52595;51.608;7.216;2022-08-19T05:08:41;17.45;91.73
65836;SHT30;52595;51.608;7.216;2022-08-19T05:11:16;17.48;91.80
65836;SHT30;52595;51.608;7.216;2022-08-19T05:13:43;17.50;91.53
65836;SHT30;52595;51.608;7.216;2022-08-19T05:16:09;17.52;91.50
65836;SHT30;52595;51.608;7.216;2022-08-19T05:18:35;17.53;91.55
65836;SHT30;52595;51.608;7.216;2022-08-19T05:21:20;17.55;91.37
65836;SHT30;52595;51.608;7.216;2022-08-19T05:24:05;17.56;91.37
65836;SHT30;52595;51.608;7.216;2022-08-19T05:26:42;17.63;91.28
65836;SHT30;52595;51.608;7.216;2022-08-19T05:29:09;17.70;91.16
65836;SHT30;52595;51.608;7.216;2022-08-19T05:31:36;17.76;90.96
65836;SHT30;52595;51.608;7.216;2022-08-19T05:34:04;17.79;90.82
65836;SHT30;52595;51.608;7.216;2022-08-19T05:36:44;17.85;90.66
65836;SHT30;52595;51.608;7.216;2022-08-19T05:39:13;17.96;90.34
65836;SHT30;52595;51.608;7.216;2022-08-19T05:41:51;18.14;89.80
65836;SHT30;52595;51.608;7.216;2022-08-19T05:44:18;18.41;89.16
65836;SHT30;52595;51.608;7.216;2022-08-19T05:46:44;18.63;88.37
65836;SHT30;52595;51.608;7.216;2022-08-19T05:49:13;18.81;87.46
65836;SHT30;52595;51.608;7.216;2022-08-19T05:51:40;18.98;86.90
65836;SHT30;52595;51.608;7.216;2022-08-19T05:54:06;18.99;86.75
65836;SHT30;52595;51.608;7.216;2022-08-19T05:56:33;19.14;86.24
65836;SHT30;52595;51.608;7.216;2022-08-19T05:59:02;19.35;85.87
65836;SHT30;52595;51.608;7.216;2022-08-19T06:01:29;19.45;85.49
65836;SHT30;52595;51.608;7.216;2022-08-19T06:03:54;19.63;85.11
65836;SHT30;52595;51.608;7.216;2022-08-19T06:06:21;19.62;84.99
65836;SHT30;52595;51.608;7.216;2022-08-19T06:08:47;19.62;85.11
65836;SHT30;52595;51.608;7.216;2022-08-19T06:11:20;19.58;85.41
65836;SHT30;52595;51.608;7.216;2022-08-19T06:13:48;19.53;85.15
65836;SHT30;52595;51.608;7.216;2022-08-19T06:16:17;19.43;85.65
65836;SHT30;52595;51.608;7.216;2022-08-19T06:18:48;19.45;85.83
65836;SHT30;52595;51.608;7.216;2022-08-19T06:21:14;19.50;85.55
65836;SHT30;52595;51.608;7.216;2022-08-19T06:23:39;19.48;85.74
65836;SHT30;52595;51.608;7.216;2022-08-19T06:26:05;19.53;85.63
65836;SHT30;52595;51.608;7.216;2022-08-19T06:28:31;19.58;85.25
65836;SHT30;52595;51.608;7.216;2022-08-19T06:30:58;19.60;85.32
65836;SHT30;52595;51.608;7.216;2022-08-19T06:33:23;19.55;85.15
65836;SHT30;52595;51.608;7.216;2022-08-19T06:35:49;19.50;85.35
65836;SHT30;52595;51.608;7.216;2022-08-19T06:38:14;19.49;85.45
65836;SHT30;52595;51.608;7.216;2022-08-19T06:40:39;19.55;85.44
65836;SHT30;52595;51.608;7.216;2022-08-19T06:43:05;19.59;85.11
65836;SHT30;52595;51.608;7.216;2022-08-19T06:45:30;19.63;85.16
65836;SHT30;52595;51.608;7.216;2022-08-19T06:47:57;19.70;85.04
65836;SHT30;52595;51.608;7.216;2022-08-19T06:50:23;19.74;84.94
65836;SHT30;52595;51.608;7.216;2022-08-19T06:52:49;19.69;84.84
65836;SHT30;52595;51.608;7.216;2022-08-19T06:55:15;19.73;84.93
65836;SHT30;52595;51.608;7.216;2022-08-19T06:57:41;19.73;84.95
65836;SHT30;52595;51.608;7.216;2022-08-19T07:00:08;19.79;84.93
65836;SHT30;52595;51.608;7.216;2022-08-19T07:02:42;19.93;84.69
65836;SHT30;52595;51.608;7.216;2022-08-19T07:05:07;20.01;84.39
65836;SHT30;52595;51.608;7.216;2022-08-19T07:07:33;20.10;84.26
65836;SHT30;52595;51.608;7.216;2022-08-19T07:10:00;20.21;83.84
65836;SHT30;52595;51.608;7.216;2022-08-19T07:12:30;20.27;83.64
65836;SHT30;52595;51.608;7.216;2022-08-19T07:14:59;20.31;83.07
65836;SHT30;52595;51.608;7.216;2022-08-19T07:17:25;20.33;83.01
65836;SHT30;52595;51.608;7.216;2022-08-19T07:19:51;20.40;83.03
65836;SHT30;52595;51.608;7.216;2022-08-19T07:22:16;20.38;83.13
65836;SHT30;52595;51.608;7.216;2022-08-19T07:24:43;20.43;83.33
65836;SHT30;52595;51.608;7.216;2022-08-19T07:27:08;20.51;82.98
65836;SHT30;52595;51.608;7.216;2022-08-19T07:29:36;20.54;82.47
65836;SHT30;52595;51.608;7.216;2022-08-19T07:32:03;20.63;82.13
65836;SHT30;52595;51.608;7.216;2022-08-19T07:34:30;20.71;82.38
65836;SHT30;52595;51.608;7.216;2022-08-19T07:36:56;20.63;82.22
65836;SHT30;52595;51.608;7.216;2022-08-19T07:39:25;20.54;82.58
65836;SHT30;52595;51.608;7.216;2022-08-19T07:41:51;20.61;82.66
65836;SHT30;52595;51.608;7.216;2022-08-19T07:44:18;20.68;82.55
65836;SHT30;52595;51.608;7.216;2022-08-19T07:46:47;20.81;82.14
65836;SHT30;52595;51.608;7.216;2022-08-19T07:49:14;20.78;81.99
65836;SHT30;52595;51.608;7.216;2022-08-19T07:51:46;20.89;82.15
65836;SHT30;52595;51.608;7.216;2022-08-19T07:54:12;21.02;81.58
65836;SHT30;52595;51.608;7.216;2022-08-19T07:56:37;21.18;80.88
65836;SHT30;52595;51.608;7.216;2022-08-19T07:59:03;21.29;80.66
65836;SHT30;52595;51.608;7.216;2022-08-19T08:01:29;21.50;80.31
65836;SHT30;52595;51.608;7.216;2022-08-19T08:03:56;21.70;79.87
65836;SHT30;52595;51.608;7.216;2022-08-19T08:06:40;21.77;79.09
65836;SHT30;52595;51.608;7.216;2022-08-19T08:09:30;21.84;78.87
65836;SHT30;52595;51.608;7.216;2022-08-19T08:12:08;21.93;78.47
65836;SHT30;52595;51.608;7.216;2022-08-19T08:14:47;22.04;78.26
65836;SHT30;52595;51.608;7.216;2022-08-19T08:17:17;22.21;77.55
65836;SHT30;52595;51.608;7.216;2022-08-19T08:19:44;22.40;77.57
65836;SHT30;52595;51.608;7.216;2022-08-19T08:22:10;22.49;76.62
65836;SHT30;52595;51.608;7.216;2022-08-19T08:25:09;22.89;75.91
65836;SHT30;52595;51.608;7.216;2022-08-19T08:27:39;22.94;73.88
65836;SHT30;52595;51.608;7.216;2022-08-19T08:30:14;22.95;74.10
65836;SHT30;52595;51.608;7.216;2022-08-19T08:32:40;23.15;74.00
65836;SHT30;52595;51.608;7.216;2022-08-19T08:35:09;23.20;73.22
65836;SHT30;52595;51.608;7.216;2022-08-19T08:37:35;23.22;72.42
65836;SHT30;52595;51.608;7.216;2022-08-19T08:43:13;23.27;73.05
65836;SHT30;52595;51.608;7.216;2022-08-19T08:45:51;23.30;72.86
65836;SHT30;52595;51.608;7.216;2022-08-19T08:48:51;23.40;72.28
65836;SHT30;52595;51.608;7.216;2022-08-19T08:51:24;23.61;72.03
65836;SHT30;52595;51.608;7.216;2022-08-19T08:53:52;23.71;72.01
65836;SHT30;52595;51.608;7.216;2022-08-19T08:56:19;24.00;71.03
65836;SHT30;52595;51.608;7.216;2022-08-19T08:58:51;24.11;70.80
65836;SHT30;52595;51.608;7.216;2022-08-19T09:01:19;24.03;69.52
65836;SHT30;52595;51.608;7.216;2022-08-19T09:03:45;24.03;69.10
65836;SHT30;52595;51.608;7.216;2022-08-19T09:06:36;24.28;67.76
65836;SHT30;52595;51.608;7.216;2022-08-19T09:09:18;24.58;67.20
65836;SHT30;52595;51.608;7.216;2022-08-19T09:11:56;24.52;67.64
65836;SHT30;52595;51.608;7.216;2022-08-19T09:15:09;24.42;68.44
65836;SHT30;52595;51.608;7.216;2022-08-19T09:17:11;24.26;65.73
65836;SHT30;52595;51.608;7.216;2022-08-19T09:19:55;24.41;66.06
65836;SHT30;52595;51.608;7.216;2022-08-19T09:22:21;24.34;66.89
65836;SHT30;52595;51.608;7.216;2022-08-19T09:24:50;24.44;66.50
65836;SHT30;52595;51.608;7.216;2022-08-19T09:27:18;24.54;66.10
65836;SHT30;52595;51.608;7.216;2022-08-19T09:29:44;24.35;66.27
65836;SHT30;52595;51.608;7.216;2022-08-19T09:32:09;24.03;67.27
65836;SHT30;52595;51.608;7.216;2022-08-19T09:34:35;23.84;66.76
65836;SHT30;52595;51.608;7.216;2022-08-19T09:37:00;23.96;67.24
65836;SHT30;52595;51.608;7.216;2022-08-19T09:39:26;24.03;67.45
65836;SHT30;52595;51.608;7.216;2022-08-19T09:41:51;24.08;67.44
65836;SHT30;52595;51.608;7.216;2022-08-19T09:44:18;24.04;67.60
65836;SHT30;52595;51.608;7.216;2022-08-19T09:46:45;23.90;68.19
65836;SHT30;52595;51.608;7.216;2022-08-19T09:49:15;24.29;66.92
65836;SHT30;52595;51.608;7.216;2022-08-19T09:51:40;24.55;66.28
65836;SHT30;52595;51.608;7.216;2022-08-19T09:54:06;24.96;65.44
65836;SHT30;52595;51.608;7.216;2022-08-19T09:56:32;25.03;64.25
65836;SHT30;52595;51.608;7.216;2022-08-19T09:58:58;25.15;64.11
65836;SHT30;52595;51.608;7.216;2022-08-19T10:01:27;24.99;64.21
65836;SHT30;52595;51.608;7.216;2022-08-19T10:03:54;25.26;63.69
65836;SHT30;52595;51.608;7.216;2022-08-19T10:06:24;25.67;62.67
65836;SHT30;52595;51.608;7.216;2022-08-19T10:08:51;25.59;62.58
65836;SHT30;52595;51.608;7.216;2022-08-19T10:11:17;25.34;63.45
65836;SHT30;52595;51.608;7.216;2022-08-19T10:13:44;24.99;64.20
65836;SHT30;52595;51.608;7.216;2022-08-19T10:16:12;24.99;64.32
65836;SHT30;52595;51.608;7.216;2022-08-19T10:18:38;24.75;64.70
65836;SHT30;52595;51.608;7.216;2022-08-19T10:21:13;25.31;63.74
65836;SHT30;52595;51.608;7.216;2022-08-19T10:23:41;25.26;63.06
65836;SHT30;52595;51.608;7.216;2022-08-19T10:26:15;25.05;63.60
65836;SHT30;52595;51.608;7.216;2022-08-19T10:28:41;25.22;63.34
65836;SHT30;52595;51.608;7.216;2022-08-19T10:31:10;25.56;60.64
65836;SHT30;52595;51.608;7.216;2022-08-19T10:33:37;25.78;59.83
65836;SHT30;52595;51.608;7.216;2022-08-19T10:36:06;26.34;58.61
65836;SHT30;52595;51.608;7.216;2022-08-19T10:38:32;26.52;57.91
65836;SHT30;52595;51.608;7.216;2022-08-19T10:41:19;26.29;56.23
65836;SHT30;52595;51.608;7.216;2022-08-19T10:43:45;26.39;57.07
65836;SHT30;52595;51.608;7.216;2022-08-19T10:46:14;26.45;56.77
65836;SHT30;52595;51.608;7.216;2022-08-19T10:48:44;26.53;55.75
65836;SHT30;52595;51.608;7.216;2022-08-19T10:51:10;26.60;55.93
65836;SHT30;52595;51.608;7.216;2022-08-19T10:53:55;26.45;55.97
65836;SHT30;52595;51.608;7.216;2022-08-19T10:56:21;26.18;56.63
65836;SHT30;52595;51.608;7.216;2022-08-19T10:59:05;26.38;55.79
65836;SHT30;52595;51.608;7.216;2022-08-19T11:01:32;26.34;56.10
65836;SHT30;52595;51.608;7.216;2022-08-19T11:04:00;26.35;56.03
65836;SHT30;52595;51.608;7.216;2022-08-19T11:06:26;25.94;57.75
65836;SHT30;52595;51.608;7.216;2022-08-19T11:08:52;26.35;57.14
65836;SHT30;52595;51.608;7.216;2022-08-19T11:11:18;27.71;54.56
65836;SHT30;52595;51.608;7.216;2022-08-19T11:13:44;27.26;54.70
65836;SHT30;52595;51.608;7.216;2022-08-19T11:16:15;26.62;56.60
65836;SHT30;52595;51.608;7.216;2022-08-19T11:18:44;27.30;54.19
65836;SHT30;52595;51.608;7.216;2022-08-19T11:21:23;26.93;55.17
65836;SHT30;52595;51.608;7.216;2022-08-19T11:23:52;26.62;56.28
65836;SHT30;52595;51.608;7.216;2022-08-19T11:26:19;26.45;56.03
65836;SHT30;52595;51.608;7.216;2022-08-19T11:28:45;26.25;57.18
65836;SHT30;52595;51.608;7.216;2022-08-19T11:31:17;26.48;57.13
65836;SHT30;52595;51.608;7.216;2022-08-19T11:33:42;26.96;55.46
65836;SHT30;52595;51.608;7.216;2022-08-19T11:36:08;27.58;53.59
65836;SHT30;52595;51.608;7.216;2022-08-19T11:38:35;27.54;54.09
65836;SHT30;52595;51.608;7.216;2022-08-19T11:41:04;28.25;51.76
65836;SHT30;52595;51.608;7.216;2022-08-19T11:43:31;27.90;52.56
65836;SHT30;52595;51.608;7.216;2022-08-19T11:45:57;28.73;50.89
65836;SHT30;52595;51.608;7.216;2022-08-19T11:48:23;29.24;47.92
65836;SHT30;52595;51.608;7.216;2022-08-19T11:50:50;29.51;46.73
65836;SHT30;52595;51.608;7.216;2022-08-19T11:53:19;29.85;47.25
65836;SHT30;52595;51.608;7.216;2022-08-19T11:55:46;29.62;47.38
65836;SHT30;52595;51.608;7.216;2022-08-19T11:58:13;29.38;48.51
65836;SHT30;52595;51.608;7.216;2022-08-19T12:00:40;29.23;48.52
65836;SHT30;52595;51.608;7.216;2022-08-19T12:03:07;29.04;47.68
65836;SHT30;52595;51.608;7.216;2022-08-19T12:05:32;29.21;45.96
65836;SHT30;52595;51.608;7.216;2022-08-19T12:07:58;29.88;46.19
65836;SHT30;52595;51.608;7.216;2022-08-19T12:10:23;29.23;46.91
65836;SHT30;52595;51.608;7.216;2022-08-19T12:12:48;29.72;45.66
65836;SHT30;52595;51.608;7.216;2022-08-19T12:15:14;31.35;43.33
65836;SHT30;52595;51.608;7.216;2022-08-19T12:17:42;31.06;44.13
65836;SHT30;52595;51.608;7.216;2022-08-19T12:20:10;30.66;43.97
65836;SHT30;52595;51.608;7.216;2022-08-19T12:22:37;30.91;43.87
65836;SHT30;52595;51.608;7.216;2022-08-19T12:25:04;30.57;44.18
65836;SHT30;52595;51.608;7.216;2022-08-19T12:27:30;31.28;43.08
65836;SHT30;52595;51.608;7.216;2022-08-19T12:29:56;31.31;41.76
65836;SHT30;52595;51.608;7.216;2022-08-19T12:32:22;31.45;41.69
65836;SHT30;52595;51.608;7.216;2022-08-19T12:34:50;32.21;40.49
65836;SHT30;52595;51.608;7.216;2022-08-19T12:37:15;32.46;40.27
65836;SHT30;52595;51.608;7.216;2022-08-19T12:39:42;32.86;39.59
65836;SHT30;52595;51.608;7.216;2022-08-19T12:42:09;32.25;41.04
65836;SHT30;52595;51.608;7.216;2022-08-19T12:44:37;31.99;41.20
65836;SHT30;52595;51.608;7.216;2022-08-19T12:47:03;31.98;41.23
65836;SHT30;52595;51.608;7.216;2022-08-19T12:49:29;32.70;40.13
65836;SHT30;52595;51.608;7.216;2022-08-19T12:51:56;30.57;43.82
65836;SHT30;52595;51.608;7.216;2022-08-19T12:54:23;28.67;48.42
65836;SHT30;52595;51.608;7.216;2022-08-19T12:56:48;29.57;46.61
65836;SHT30;52595;51.608;7.216;2022-08-19T12:59:14;31.07;42.97
65836;SHT30;52595;51.608;7.216;2022-08-19T13:01:41;30.75;43.69
65836;SHT30;52595;51.608;7.216;2022-08-19T13:04:08;31.93;41.68
65836;SHT30;52595;51.608;7.216;2022-08-19T13:06:33;32.51;40.43
65836;SHT30;52595;51.608;7.216;2022-08-19T13:08:59;33.88;38.45
65836;SHT30;52595;51.608;7.216;2022-08-19T13:11:24;32.90;38.76
65836;SHT30;52595;51.608;7.216;2022-08-19T13:13:51;33.58;39.09
65836;SHT30;52595;51.608;7.216;2022-08-19T13:16:18;33.00;39.18
65836;SHT30;52595;51.608;7.216;2022-08-19T13:18:46;33.08;39.00
65836;SHT30;52595;51.608;7.216;2022-08-19T13:21:19;31.96;40.54
65836;SHT30;52595;51.608;7.216;2022-08-19T13:23:48;31.72;39.79
65836;SHT30;52595;51.608;7.216;2022-08-19T13:26:14;31.51;41.42
65836;SHT30;52595;51.608;7.216;2022-08-19T13:28:40;30.33;43.31
65836;SHT30;52595;51.608;7.216;2022-08-19T13:31:26;30.00;43.86
65836;SHT30;52595;51.608;7.216;2022-08-19T13:34:11;29.11;45.64
65836;SHT30;52595;51.608;7.216;2022-08-19T13:36:37;29.16;45.80
65836;SHT30;52595;51.608;7.216;2022-08-19T13:39:04;28.49;46.01
65836;SHT30;52595;51.608;7.216;2022-08-19T13:41:30;30.25;42.77
65836;SHT30;52595;51.608;7.216;2022-08-19T13:43:56;31.07;40.92
65836;SHT30;52595;51.608;7.216;2022-08-19T13:46:22;30.86;41.49
65836;SHT30;52595;51.608;7.216;2022-08-19T13:48:47;30.46;41.12
65836;SHT30;52595;51.608;7.216;2022-08-19T13:51:17;31.23;40.30
65836;SHT30;52595;51.608;7.216;2022-08-19T13:53:43;32.33;39.02
65836;SHT30;52595;51.608;7.216;2022-08-19T13:56:14;32.62;37.94
65836;SHT30;52595;51.608;7.216;2022-08-19T13:58:39;32.48;38.35
65836;SHT30;52595;51.608;7.216;2022-08-19T14:01:05;32.40;38.04
65836;SHT30;52595;51.608;7.216;2022-08-19T14:03:32;32.87;37.76
65836;SHT30;52595;51.608;7.216;2022-08-19T14:05:58;32.90;37.91
65836;SHT30;52595;51.608;7.216;2022-08-19T14:08:24;32.42;38.53
65836;SHT30;52595;51.608;7.216;2022-08-19T14:10:50;33.17;37.69
65836;SHT30;52595;51.608;7.216;2022-08-19T14:13:18;31.48;40.06
65836;SHT30;52595;51.608;7.216;2022-08-19T14:15:45;31.96;39.73
65836;SHT30;52595;51.608;7.216;2022-08-19T14:18:13;31.47;39.96
65836;SHT30;52595;51.608;7.216;2022-08-19T14:20:38;32.13;39.37
65836;SHT30;52595;51.608;7.216;2022-08-19T14:23:04;30.93;40.67
65836;SHT30;52595;51.608;7.216;2022-08-19T14:25:32;29.37;43.30
65836;SHT30;52595;51.608;7.216;2022-08-19T14:27:58;30.19;41.41
65836;SHT30;52595;51.608;7.216;2022-08-19T14:30:30;31.04;40.27
65836;SHT30;52595;51.608;7.216;2022-08-19T14:32:57;29.29;42.50
65836;SHT30;52595;51.608;7.216;2022-08-19T14:35:24;28.79;44.01
65836;SHT30;52595;51.608;7.216;2022-08-19T14:37:50;28.51;44.91
65836;SHT30;52595;51.608;7.216;2022-08-19T14:40:22;29.82;43.24
65836;SHT30;52595;51.608;7.216;2022-08-19T14:43:01;30.66;41.71
65836;SHT30;52595;51.608;7.216;2022-08-19T14:45:32;32.31;39.02
65836;SHT30;52595;51.608;7.216;2022-08-19T14:47:58;31.41;39.92
65836;SHT30;52595;51.608;7.216;2022-08-19T14:50:27;30.87;40.97
65836;SHT30;52595;51.608;7.216;2022-08-19T14:53:06;28.73;44.73
65836;SHT30;52595;51.608;7.216;2022-08-19T14:55:32;28.69;44.98
65836;SHT30;52595;51.608;7.216;2022-08-19T14:57:58;29.11;44.34
65836;SHT30;52595;51.608;7.216;2022-08-19T15:00:25;30.09;42.12
65836;SHT30;52595;51.608;7.216;2022-08-19T15:02:50;30.96;40.76
65836;SHT30;52595;51.608;7.216;2022-08-19T15:05:17;29.70;43.05
65836;SHT30;52595;51.608;7.216;2022-08-19T15:07:42;29.14;43.91
65836;SHT30;52595;51.608;7.216;2022-08-19T15:10:09;29.43;43.38
65836;SHT30;52595;51.608;7.216;2022-08-19T15:12:37;29.11;44.18
65836;SHT30;52595;51.608;7.216;2022-08-19T15:15:14;28.59;46.09
65836;SHT30;52595;51.608;7.216;2022-08-19T15:17:43;28.46;46.82
65836;SHT30;52595;51.608;7.216;2022-08-19T15:20:10;29.04;45.77
65836;SHT30;52595;51.608;7.216;2022-08-19T15:22:37;29.11;45.59
65836;SHT30;52595;51.608;7.216;2022-08-19T15:25:04;29.46;45.50
65836;SHT30;52595;51.608;7.216;2022-08-19T15:27:30;29.97;44.36
65836;SHT30;52595;51.608;7.216;2022-08-19T15:29:55;29.78;44.54
65836;SHT30;52595;51.608;7.216;2022-08-19T15:32:22;29.80;44.33
65836;SHT30;52595;51.608;7.216;2022-08-19T15:34:48;28.90;46.16
65836;SHT30;52595;51.608;7.216;2022-08-19T15:37:14;28.26;47.55
65836;SHT30;52595;51.608;7.216;2022-08-19T15:39:39;28.46;47.45
65836;SHT30;52595;51.608;7.216;2022-08-19T15:42:05;28.34;47.29